Time;durP1;ratioP1;P1;durP2;ratioP2;P2;SDS_P1;SDS_P2;PMS_P1;PMS_P2;Temp;Humidity;BMP_temperature;BMP_pressure;BME280_temperature;BME280_humidity;BME280_pressure;Samples;Min_cycle;Max_cycle;Signal;HPM_P1;HPM_P2
2022/09/16 00:00:21;;;;;;;8.73;2.55;;;;;;;11.48;92.43;101075.50;5056955;28;20048;-74
2022/09/16 00:02:46;;;;;;;9.00;2.63;;;;;;;11.45;92.03;101068.50;5053560;28;20032;-74
2022/09/16 00:05:12;;;;;;;9.15;2.45;;;;;;;11.45;91.99;101065.84;5071158;28;20036;-74
2022/09/16 00:07:38;;;;;;;7.95;1.95;;;;;;;11.46;92.89;101070.22;5064500;28;20503;-74
2022/09/16 00:10:04;;;;;;;6.53;2.10;;;;;;;11.43;93.01;101065.00;5061324;28;20040;-74
2022/09/16 00:12:30;;;;;;;10.77;2.45;;;;;;;11.42;92.99;101063.25;5071114;28;20125;-74
2022/09/16 00:14:56;;;;;;;9.57;2.38;;;;;;;11.41;92.51;101061.50;5065057;28;20070;-74
2022/09/16 00:17:21;;;;;;;9.73;2.50;;;;;;;11.41;92.67;101058.84;5061403;28;20076;-74
2022/09/16 00:19:48;;;;;;;10.90;2.33;;;;;;;11.43;92.69;101054.41;5065394;28;20033;-74
2022/09/16 00:22:13;;;;;;;6.70;2.17;;;;;;;11.42;92.45;101057.94;5054551;28;20140;-74
2022/09/16 00:24:39;;;;;;;7.97;2.10;;;;;;;11.42;92.80;101057.94;5060130;28;20085;-74
2022/09/16 00:27:04;;;;;;;6.60;2.15;;;;;;;11.41;92.67;101056.19;5055895;28;20063;-74
2022/09/16 00:29:30;;;;;;;8.75;2.22;;;;;;;11.42;92.20;101052.63;5066520;28;20041;-74
2022/09/16 00:31:55;;;;;;;12.93;2.15;;;;;;;11.43;92.09;101065.00;5051356;28;20032;-74
2022/09/16 00:34:21;;;;;;;6.57;2.20;;;;;;;11.44;92.10;101057.91;5059264;28;20120;-74
2022/09/16 00:36:46;;;;;;;7.55;2.75;;;;;;;11.42;91.80;101055.28;5050996;28;20139;-74
2022/09/16 00:39:12;;;;;;;10.73;2.38;;;;;;;11.40;91.29;101050.03;5068763;28;20052;-74
2022/09/16 00:41:38;;;;;;;10.27;2.55;;;;;;;11.35;92.09;101062.53;5071997;28;20020;-74
2022/09/16 00:44:45;;;;;;;9.10;2.03;;;;;;;11.35;92.47;101057.22;5074861;28;20043;-74
2022/09/16 00:47:12;;;;;;;4.68;1.85;;;;;;;11.32;91.68;101051.09;5050633;28;20047;-74
2022/09/16 00:49:37;;;;;;;6.68;2.17;;;;;;;11.31;91.01;101058.19;5051097;28;20071;-74
2022/09/16 00:52:05;;;;;;;11.45;2.28;;;;;;;11.25;90.59;101047.72;5044392;28;20043;-74
2022/09/16 00:54:34;;;;;;;7.85;2.63;;;;;;;11.20;91.88;101046.91;5074719;28;20388;-74
2022/09/16 00:57:01;;;;;;;6.30;1.90;;;;;;;11.16;91.87;101048.78;5065258;28;20033;-74
2022/09/16 00:59:40;;;;;;;4.28;2.00;;;;;;;11.11;92.69;101053.28;5055323;28;20044;-74
2022/09/16 01:02:11;;;;;;;5.70;2.10;;;;;;;11.08;92.09;101048.06;5070438;28;20067;-74
2022/09/16 01:04:46;;;;;;;6.07;2.20;;;;;;;11.06;92.03;101049.88;5071123;28;20032;-74
2022/09/16 01:07:12;;;;;;;6.22;2.30;;;;;;;11.02;92.11;101049.97;5063877;28;20029;-74
2022/09/16 01:09:38;;;;;;;8.27;2.28;;;;;;;10.98;92.28;101044.72;5055071;28;20033;-74
2022/09/16 01:12:04;;;;;;;6.65;2.58;;;;;;;10.97;92.15;101047.41;5073181;28;20040;-74
2022/09/16 01:17:26;;;;;;;7.88;2.30;;;;;;;10.94;91.69;101034.22;5074265;28;20074;-74
2022/09/16 01:20:08;;;;;;;7.90;2.03;;;;;;;10.91;92.11;101043.09;5074160;28;20428;-74
2022/09/16 01:22:36;;;;;;;;;;;;;;;10.97;90.69;101042.09;5056248;28;20396;-74
2022/09/16 01:25:14;;;;;;;7.93;2.40;;;;;;;10.88;91.30;101045.81;5068356;28;20359;-74
2022/09/16 01:28:04;;;;;;;7.70;2.40;;;;;;;10.87;91.40;101036.09;5074599;28;20106;-74
2022/09/16 01:30:44;;;;;;;8.77;2.30;;;;;;;10.83;91.84;101037.09;5072846;28;20120;-74
2022/09/16 01:33:22;;;;;;;5.28;2.22;;;;;;;10.75;92.60;101039.88;5068076;28;20129;-74
2022/09/16 01:36:00;;;;;;;5.88;2.65;;;;;;;10.73;92.88;101033.75;5072846;28;20119;-74
2022/09/16 01:38:28;;;;;;;5.68;2.30;;;;;;;10.69;92.56;101047.94;5074117;28;20073;-74
2022/09/16 01:41:32;;;;;;;6.90;2.22;;;;;;;10.68;91.96;101045.31;5060352;28;20068;-74
2022/09/16 01:44:16;;;;;;;8.85;2.42;;;;;;;10.62;92.43;101051.59;5073827;28;20040;-74
2022/09/16 01:46:50;;;;;;;8.70;2.45;;;;;;;10.57;91.93;101044.66;5074188;28;20120;-74
2022/09/16 01:49:38;;;;;;;6.63;2.90;;;;;;;10.57;92.18;101042.00;5059694;28;20421;-74
2022/09/16 01:52:33;;;;;;;10.48;3.15;;;;;;;10.56;91.45;101041.16;5066638;28;20055;-74
2022/09/16 01:55:03;;;;;;;8.90;2.30;;;;;;;10.52;91.42;101031.50;5062956;28;20585;-74
2022/09/16 01:57:44;;;;;;;8.23;2.70;;;;;;;10.51;91.75;101041.22;5058609;28;20186;-74
2022/09/16 02:00:14;;;;;;;9.52;2.70;;;;;;;10.45;92.35;101046.63;5073432;28;20036;-73
2022/09/16 02:02:52;;;;;;;10.18;2.22;;;;;;;10.42;91.01;101045.81;5073876;28;20125;-74
2022/09/16 02:05:33;;;;;;;8.43;2.60;;;;;;;10.39;90.82;101045.88;5072224;28;20032;-74
2022/09/16 02:08:04;;;;;;;8.90;2.97;;;;;;;10.36;91.44;101053.84;5072394;28;20025;-74
2022/09/16 02:10:42;;;;;;;8.30;2.40;;;;;;;10.37;91.57;101047.66;5072104;28;20037;-74
2022/09/16 02:13:15;;;;;;;9.93;2.42;;;;;;;10.35;92.40;101050.34;5073687;28;20063;-74
2022/09/16 02:15:45;;;;;;;12.20;3.00;;;;;;;10.37;93.74;101050.31;5063181;28;20049;-74
2022/09/16 02:18:16;;;;;;;9.20;2.85;;;;;;;10.38;93.58;101054.69;5060737;28;20040;-74
2022/09/16 02:20:46;;;;;;;8.85;3.25;;;;;;;10.39;94.17;101053.81;5068643;28;20596;-73
2022/09/16 02:23:21;;;;;;;12.77;3.00;;;;;;;10.42;93.98;101051.97;5056558;28;20475;-74
2022/09/16 02:25:49;;;;;;;7.03;2.47;;;;;;;10.44;93.42;101054.59;5051937;28;20033;-74
2022/09/16 02:28:29;;;;;;;7.50;2.78;;;;;;;10.46;93.62;101056.31;5068803;28;20048;-74
2022/09/16 02:30:59;;;;;;;8.18;3.28;;;;;;;10.48;93.83;101048.34;5053192;28;20044;-74
2022/09/16 02:33:32;;;;;;;8.57;2.55;;;;;;;10.49;93.48;101058.03;5060969;28;20388;-74
2022/09/16 02:36:00;;;;;;;10.43;2.50;;;;;;;10.47;93.21;101052.75;5060691;28;20370;-74
2022/09/16 02:38:34;;;;;;;12.23;3.33;;;;;;;10.49;93.43;101055.41;5073050;28;20036;-73
2022/09/16 02:41:00;;;;;;;10.70;2.78;;;;;;;10.49;93.32;101050.09;5066109;28;20178;-74
2022/09/16 02:43:27;;;;;;;8.00;2.85;;;;;;;10.50;92.38;101047.41;5066047;28;20129;-74
2022/09/16 02:46:07;;;;;;;14.13;2.80;;;;;;;10.51;93.30;101049.16;5072504;28;20040;-73
2022/09/16 02:48:41;;;;;;;10.50;2.80;;;;;;;10.52;93.10;101042.97;5071274;28;20047;-74
2022/09/16 02:51:30;;;;;;;9.25;2.47;;;;;;;10.54;93.21;101051.75;5072751;28;20040;-74
2022/09/16 02:54:26;;;;;;;8.65;2.85;;;;;;;10.55;93.32;101039.38;5068105;28;20044;-73
2022/09/16 02:56:54;;;;;;;5.30;2.10;;;;;;;10.56;92.76;101038.50;5034186;28;20055;-74
2022/09/16 02:59:20;;;;;;;12.73;3.25;;;;;;;10.55;93.02;101047.31;5058310;28;20066;-74
2022/09/16 03:01:45;;;;;;;8.85;2.45;;;;;;;10.57;93.19;101042.88;5071512;28;20048;-74
2022/09/16 03:04:14;;;;;;;6.10;1.98;;;;;;;10.60;93.11;101049.88;5068308;28;20384;-74
2022/09/16 03:06:40;;;;;;;9.40;2.15;;;;;;;10.61;93.10;101047.22;5072560;28;20055;-74
2022/09/16 03:09:11;;;;;;;15.27;2.22;;;;;;;10.63;93.00;101040.13;5058338;28;20025;-73
2022/09/16 03:11:39;;;;;;;8.20;2.00;;;;;;;10.65;92.82;101040.06;5065539;28;20037;-73
2022/09/16 03:14:26;;;;;;;6.85;1.85;;;;;;;10.67;93.00;101044.44;5065141;28;20045;-73
2022/09/16 03:16:55;;;;;;;7.30;2.30;;;;;;;10.70;92.74;101048.81;5048446;28;20048;-73
2022/09/16 03:19:46;;;;;;;9.65;2.10;;;;;;;10.70;93.41;101041.72;5066494;28;20036;-73
2022/09/16 03:22:17;;;;;;;5.00;1.75;;;;;;;10.72;92.70;101047.88;5060298;28;20058;-73
2022/09/16 03:25:07;;;;;;;7.53;2.35;;;;;;;10.72;92.99;101039.94;5072142;28;20467;-73
2022/09/16 03:27:45;;;;;;;10.98;2.35;;;;;;;10.70;93.05;101028.50;5072686;28;20039;-73
2022/09/16 03:30:11;;;;;;;11.35;1.90;;;;;;;10.73;93.12;101027.56;5067892;28;20384;-73
2022/09/16 03:32:53;;;;;;;6.65;2.00;;;;;;;10.72;92.94;101034.63;5070088;28;20032;-73
2022/09/16 03:35:25;;;;;;;5.78;1.58;;;;;;;10.72;93.16;101029.34;5067934;28;20033;-73
2022/09/16 03:37:54;;;;;;;6.82;1.77;;;;;;;10.71;93.53;101027.59;5070624;28;20048;-73
2022/09/16 03:40:21;;;;;;;4.30;1.55;;;;;;;10.70;93.33;101027.63;5057564;28;20098;-73
2022/09/16 03:42:46;;;;;;;5.78;1.67;;;;;;;10.73;93.02;101035.50;5064166;28;20024;-73
2022/09/16 03:45:19;;;;;;;5.13;1.95;;;;;;;10.72;93.23;101036.41;5050198;28;20044;-74
2022/09/16 03:47:46;;;;;;;4.88;1.33;;;;;;;10.69;93.38;101033.84;5057234;28;20395;-74
2022/09/16 03:50:13;;;;;;;3.60;1.25;;;;;;;10.69;93.17;101032.06;5070168;28;20037;-74
2022/09/16 03:52:39;;;;;;;3.25;1.40;;;;;;;10.69;93.72;101036.47;5062970;28;20387;-73
2022/09/16 03:55:06;;;;;;;10.07;2.17;;;;;;;10.70;93.66;101030.28;5050056;28;20052;-74
2022/09/16 03:57:32;;;;;;;3.65;1.25;;;;;;;10.69;93.46;101039.13;5064239;28;20396;-74
2022/09/16 03:59:57;;;;;;;3.92;1.08;;;;;;;10.67;93.48;101036.50;5050144;28;20040;-74
2022/09/16 04:02:23;;;;;;;11.15;1.40;;;;;;;10.68;93.60;101037.38;5066585;28;20128;-74
2022/09/16 04:04:52;;;;;;;4.68;1.63;;;;;;;10.67;93.99;101038.28;5070023;28;20048;-74
2022/09/16 04:07:17;;;;;;;8.93;1.83;;;;;;;10.68;94.20;101032.06;5023703;28;20059;-74
2022/09/16 04:09:43;;;;;;;5.28;1.67;;;;;;;10.69;93.79;101033.84;5070609;28;20076;-74
2022/09/16 04:12:08;;;;;;;6.07;1.40;;;;;;;10.67;94.01;101035.63;5071431;28;20044;-74
2022/09/16 04:14:34;;;;;;;6.50;1.58;;;;;;;10.68;93.79;101042.66;5068498;28;20117;-74
2022/09/16 04:17:00;;;;;;;5.80;1.65;;;;;;;10.67;94.03;101036.50;5053406;28;20060;-74
2022/09/16 04:19:26;;;;;;;6.40;2.03;;;;;;;10.66;94.17;101039.19;5064851;28;20085;-74
2022/09/16 04:21:51;;;;;;;7.43;1.75;;;;;;;10.66;93.86;101040.06;5064113;28;20059;-74
2022/09/16 04:24:17;;;;;;;4.18;1.63;;;;;;;10.68;93.68;101048.84;5071097;28;20616;-73
2022/09/16 04:26:44;;;;;;;5.90;2.13;;;;;;;10.67;94.18;101054.16;5071230;28;20123;-74
2022/09/16 04:29:10;;;;;;;3.45;1.30;;;;;;;10.68;94.33;101055.91;5071032;28;20124;-73
2022/09/16 04:31:35;;;;;;;6.30;1.48;;;;;;;10.67;94.25;101049.75;5071260;28;20108;-74
2022/09/16 04:34:02;;;;;;;5.50;1.50;;;;;;;10.69;94.31;101041.78;5052525;28;20444;-73
2022/09/16 04:36:28;;;;;;;4.20;1.45;;;;;;;10.67;94.77;101052.38;5070023;28;20037;-73
2022/09/16 04:38:53;;;;;;;2.83;1.40;;;;;;;10.70;95.10;101046.16;5055748;28;20173;-72
2022/09/16 04:41:22;;;;;;;4.10;1.33;;;;;;;10.67;95.18;101040.94;5071356;28;20040;-72
2022/09/16 04:44:05;;;;;;;4.68;1.60;;;;;;;10.71;94.80;101027.59;5057327;28;20063;-72
2022/09/16 04:46:31;;;;;;;6.63;1.23;;;;;;;10.72;94.89;101029.34;5071108;28;20131;-72
2022/09/16 04:48:57;;;;;;;5.50;1.30;;;;;;;10.73;94.61;101022.25;5057119;28;20435;-73
2022/09/16 04:51:26;;;;;;;5.25;1.52;;;;;;;10.75;94.96;101017.81;5069864;28;20387;-73
2022/09/16 04:53:53;;;;;;;9.32;1.50;;;;;;;10.74;95.09;101011.63;5070574;28;20068;-73
2022/09/16 04:56:21;;;;;;;6.95;1.73;;;;;;;10.72;95.04;101021.38;5052981;28;20036;-73
2022/09/16 04:58:48;;;;;;;5.40;1.60;;;;;;;10.70;95.03;101031.13;5070752;28;20037;-73
2022/09/16 05:01:17;;;;;;;5.57;1.50;;;;;;;10.70;95.60;101032.91;5069433;28;20472;-73
2022/09/16 05:03:47;;;;;;;8.02;2.15;;;;;;;10.67;95.13;101039.16;5070585;28;20029;-73
2022/09/16 05:06:19;;;;;;;3.90;1.40;;;;;;;10.69;95.13;101047.94;5055608;28;20032;-74
2022/09/16 05:08:44;;;;;;;7.22;1.42;;;;;;;10.67;94.94;101049.75;5070622;28;20037;-73
2022/09/16 05:11:14;;;;;;;5.63;1.52;;;;;;;10.67;94.72;101044.44;5071228;28;20027;-73
2022/09/16 05:13:39;;;;;;;4.85;1.17;;;;;;;10.66;94.42;101037.41;5068787;28;20060;-74
2022/09/16 05:16:08;;;;;;;15.98;1.45;;;;;;;10.66;94.32;101041.84;5056914;28;20044;-74
2022/09/16 05:18:36;;;;;;;3.80;1.35;;;;;;;10.62;94.61;101054.25;5058868;28;20031;-73
2022/09/16 05:21:03;;;;;;;4.15;1.13;;;;;;;10.63;94.54;101055.13;5069159;28;20483;-73
2022/09/16 05:23:29;;;;;;;2.75;1.15;;;;;;;10.62;94.57;101040.16;5070650;28;20037;-73
2022/09/16 05:26:07;;;;;;;4.43;1.20;;;;;;;10.60;95.00;101028.69;5069340;28;20132;-74
2022/09/16 05:28:34;;;;;;;2.88;1.00;;;;;;;10.61;94.72;101038.38;5054508;28;20053;-74
2022/09/16 05:31:27;;;;;;;4.50;0.88;;;;;;;10.60;94.51;101041.94;5061627;28;20606;-73
2022/09/16 05:34:20;;;;;;;3.00;0.82;;;;;;;10.58;94.96;101044.59;5071862;28;20055;-73
2022/09/16 05:36:47;;;;;;;5.00;1.05;;;;;;;10.54;94.84;101041.16;5073866;28;20055;-72
2022/09/16 05:39:17;;;;;;;3.00;1.00;;;;;;;10.54;94.73;101040.28;5073765;28;20078;-72
2022/09/16 05:41:45;;;;;;;2.75;1.00;;;;;;;10.54;94.76;101050.88;5074113;28;20131;-72
2022/09/16 05:44:11;;;;;;;3.92;1.25;;;;;;;10.55;94.46;101049.97;5059552;28;20017;-72
2022/09/16 05:46:39;;;;;;;8.23;1.10;;;;;;;10.51;95.33;101049.16;5072662;28;20393;-73
2022/09/16 05:49:05;;;;;;;3.47;1.52;;;;;;;10.53;95.19;101060.63;5073346;28;20415;-73
2022/09/16 05:51:31;;;;;;;5.90;1.10;;;;;;;10.53;95.34;101051.75;5072738;28;21123;-73
2022/09/16 05:53:58;;;;;;;2.70;1.40;;;;;;;10.54;95.08;101051.75;5072025;28;20118;-72
2022/09/16 05:56:28;;;;;;;2.72;0.98;;;;;;;10.57;94.94;101049.97;5052743;28;20401;-73
2022/09/16 05:58:56;;;;;;;2.63;1.17;;;;;;;10.61;94.91;101051.63;5067823;28;20109;-72
2022/09/16 06:01:29;;;;;;;5.93;1.30;;;;;;;10.63;95.30;101052.47;5067384;28;20021;-72
2022/09/16 06:03:55;;;;;;;4.72;1.02;;;;;;;10.64;95.05;101055.09;5067055;28;20127;-72
2022/09/16 06:06:26;;;;;;;4.40;1.20;;;;;;;10.66;95.93;101061.25;5073659;28;20158;-73
2022/09/16 06:08:53;;;;;;;;;;;;;;;10.73;95.10;101069.94;5072490;28;20035;-73
2022/09/16 06:11:19;;;;;;;5.25;1.13;;;;;;;10.72;95.68;101069.06;5073489;28;19912;-72
2022/09/16 06:13:45;;;;;;;6.35;1.63;;;;;;;10.73;96.19;101062.00;5073335;28;20052;-72
2022/09/16 06:16:13;;;;;;;5.82;1.67;;;;;;;10.72;96.21;101066.41;5048450;28;20110;-72
2022/09/16 06:18:39;;;;;;;7.38;2.03;;;;;;;10.73;96.37;101062.00;5062210;28;20094;-72
2022/09/16 06:21:10;;;;;;;9.20;1.70;;;;;;;10.75;96.48;101058.41;5065683;28;20029;-72
2022/09/16 06:23:37;;;;;;;4.90;1.40;;;;;;;10.78;97.35;101060.16;5059198;28;20171;-72
2022/09/16 06:26:24;;;;;;;5.82;1.63;;;;;;;10.82;97.51;101060.94;5073351;28;20036;-72
2022/09/16 06:28:50;;;;;;;4.82;1.90;;;;;;;10.86;97.96;101074.13;5072663;28;20388;-72
2022/09/16 06:31:21;;;;;;;6.15;2.20;;;;;;;10.92;98.47;101073.13;5073348;28;20098;-72
2022/09/16 06:33:49;;;;;;;7.22;2.10;;;;;;;10.98;98.66;101091.56;5072861;28;20123;-72
2022/09/16 06:36:23;;;;;;;5.00;1.80;;;;;;;11.08;99.84;101092.25;5052204;28;20029;-72
2022/09/16 06:38:50;;;;;;;11.50;2.05;;;;;;;11.14;98.79;101084.16;5070356;28;20071;-72
2022/09/16 06:41:17;;;;;;;8.32;1.90;;;;;;;11.19;98.95;101083.16;5071277;28;20093;-72
2022/09/16 06:43:43;;;;;;;10.40;1.98;;;;;;;11.21;98.50;101077.84;5071613;28;20513;-72
2022/09/16 06:46:20;;;;;;;7.03;1.75;;;;;;;11.19;98.00;101072.56;5072983;28;20032;-72
2022/09/16 06:48:51;;;;;;;5.95;1.67;;;;;;;11.20;98.50;101081.38;5058625;28;20029;-72
2022/09/16 06:51:21;;;;;;;8.25;1.77;;;;;;;11.19;98.21;101080.50;5072795;28;20028;-72
2022/09/16 06:53:47;;;;;;;7.70;1.77;;;;;;;11.18;98.43;101080.56;5071071;28;20024;-72
2022/09/16 06:56:15;;;;;;;5.63;1.45;;;;;;;11.20;98.39;101078.72;5054621;28;20020;-72
2022/09/16 06:58:43;;;;;;;6.78;1.95;;;;;;;11.24;98.36;101080.41;5051196;28;20568;-72
2022/09/16 07:01:14;;;;;;;12.30;1.80;;;;;;;11.28;97.82;101079.47;5070040;28;20254;-72
2022/09/16 07:03:41;;;;;;;;;;;;;;;11.35;97.57;101078.44;5072675;28;20387;-72
2022/09/16 07:06:07;;;;;;;5.88;1.75;;;;;;;11.37;97.41;101079.28;5072457;28;20003;-72
2022/09/16 07:08:34;;;;;;;6.40;1.70;;;;;;;11.41;97.60;101080.94;5072206;28;20028;-72
2022/09/16 07:11:05;;;;;;;9.57;1.77;;;;;;;11.49;97.93;101080.75;5071125;28;20060;-73
2022/09/16 07:13:31;;;;;;;6.30;1.42;;;;;;;11.57;97.54;101080.59;5070819;28;20087;-73
2022/09/16 07:16:05;;;;;;;5.72;1.88;;;;;;;11.67;97.66;101086.56;5058977;28;20064;-72
2022/09/16 07:18:31;;;;;;;7.32;2.10;;;;;;;11.76;96.93;101087.22;5050889;28;20090;-72
2022/09/16 07:21:13;;;;;;;5.90;1.77;;;;;;;11.88;97.13;101085.25;5058141;28;20024;-73
2022/09/16 07:23:40;;;;;;;7.97;2.40;;;;;;;11.94;94.61;101083.34;5056210;28;20488;-73
2022/09/16 07:26:08;;;;;;;3.60;1.48;;;;;;;11.99;95.30;101081.44;5061852;28;20033;-73
2022/09/16 07:28:35;;;;;;;3.75;1.42;;;;;;;12.12;95.43;101086.47;5066021;28;20025;-72
2022/09/16 07:31:03;;;;;;;7.07;1.65;;;;;;;12.30;96.92;101083.34;5050795;28;20089;-73
2022/09/16 07:33:30;;;;;;;6.85;1.80;;;;;;;12.43;94.90;101094.50;5057410;28;20187;-72
2022/09/16 07:35:58;;;;;;;6.47;1.75;;;;;;;12.46;93.96;101102.41;5071737;28;20090;-73
2022/09/16 07:38:23;;;;;;;5.45;1.50;;;;;;;12.41;93.26;101099.88;5072040;28;20064;-72
2022/09/16 07:40:49;;;;;;;8.80;1.90;;;;;;;12.36;94.07;101101.75;5051138;28;20487;-72
2022/09/16 07:43:14;;;;;;;5.55;1.40;;;;;;;12.29;93.96;101086.00;5062342;28;20495;-72
2022/09/16 07:45:40;;;;;;;9.48;4.90;;;;;;;12.25;94.15;101091.41;5063549;28;20074;-71
2022/09/16 07:48:05;;;;;;;6.18;2.38;;;;;;;12.23;93.90;101082.59;5070859;28;20116;-71
2022/09/16 07:50:31;;;;;;;5.03;1.73;;;;;;;12.17;94.25;101085.44;5056120;28;20108;-71
2022/09/16 07:52:57;;;;;;;5.03;1.52;;;;;;;12.15;94.48;101099.66;5040737;28;20541;-71
2022/09/16 07:55:22;;;;;;;6.18;1.58;;;;;;;12.15;94.50;101102.31;5058341;28;20061;-72
2022/09/16 07:57:48;;;;;;;7.25;2.13;;;;;;;12.24;94.95;101099.44;5071231;28;20040;-72
2022/09/16 08:00:15;;;;;;;6.05;1.55;;;;;;;12.40;95.42;101102.56;5060107;28;20033;-72
2022/09/16 08:02:41;;;;;;;6.22;1.45;;;;;;;12.48;93.96;101098.78;5069045;28;20025;-72
2022/09/16 08:05:08;;;;;;;7.65;1.95;;;;;;;12.59;94.81;101100.31;5060584;28;20098;-72
2022/09/16 08:08:00;;;;;;;5.43;1.65;;;;;;;12.69;94.01;101100.03;5067235;28;20098;-72
2022/09/16 08:10:27;;;;;;;7.82;1.77;;;;;;;12.79;93.38;101105.97;5071255;28;20028;-72
2022/09/16 08:12:52;;;;;;;4.32;1.50;;;;;;;12.87;92.80;101103.97;5053262;28;20400;-72
2022/09/16 08:15:18;;;;;;;6.57;2.00;;;;;;;12.94;92.92;101111.78;5062688;28;20115;-72
2022/09/16 08:17:43;;;;;;;10.88;1.90;;;;;;;13.03;92.34;101108.84;5064862;28;20039;-72
2022/09/16 08:20:09;;;;;;;4.15;1.58;;;;;;;13.13;91.62;101118.34;5069523;28;20033;-73
2022/09/16 08:22:34;;;;;;;5.82;1.60;;;;;;;13.19;91.04;101110.19;5067350;28;20047;-72
2022/09/16 08:25:00;;;;;;;4.95;1.60;;;;;;;13.26;89.51;101106.44;5070840;28;20167;-72
2022/09/16 08:27:26;;;;;;;4.72;1.45;;;;;;;13.33;89.08;101116.03;5069973;28;20379;-73
2022/09/16 08:29:52;;;;;;;4.10;1.50;;;;;;;13.35;88.72;101115.97;5070894;28;20123;-73
2022/09/16 08:32:17;;;;;;;10.40;1.60;;;;;;;13.44;88.51;101110.38;5070103;28;20457;-73
2022/09/16 08:34:43;;;;;;;5.25;1.55;;;;;;;13.44;86.61;101105.06;5060995;28;20519;-72
2022/09/16 08:37:08;;;;;;;5.65;1.58;;;;;;;13.53;88.58;101120.75;5069952;28;20468;-72
2022/09/16 08:39:34;;;;;;;6.25;1.38;;;;;;;13.66;87.78;101120.38;5070988;28;20051;-72
2022/09/16 08:42:18;;;;;;;5.70;1.80;;;;;;;13.80;86.33;101114.63;5068571;28;20128;-72
2022/09/16 08:44:59;;;;;;;5.82;1.70;;;;;;;13.90;86.19;101121.44;5059111;28;20041;-72
2022/09/16 08:47:26;;;;;;;4.15;1.30;;;;;;;13.90;84.89;101114.31;5067510;28;20055;-72
2022/09/16 08:49:53;;;;;;;7.50;1.65;;;;;;;13.98;83.68;101120.25;5059399;28;20040;-73
2022/09/16 08:52:34;;;;;;;9.95;1.88;;;;;;;14.08;84.11;101114.66;5064162;28;20031;-73
2022/09/16 08:55:30;;;;;;;7.05;1.75;;;;;;;14.09;82.92;101111.91;5060733;28;20040;-73
2022/09/16 08:57:59;;;;;;;4.32;1.60;;;;;;;14.03;78.17;101114.78;5057535;28;20162;-73
2022/09/16 09:00:24;;;;;;;7.82;1.60;;;;;;;13.98;79.88;101122.06;5071149;28;20064;-73
2022/09/16 09:02:53;;;;;;;8.43;1.45;;;;;;;14.05;79.69;101115.63;5070630;28;20120;-73
2022/09/16 09:05:33;;;;;;;5.63;1.38;;;;;;;14.19;80.42;101125.81;5066795;28;20068;-73
2022/09/16 09:08:01;;;;;;;5.47;1.20;;;;;;;14.32;79.01;101115.66;5073653;28;20032;-73
2022/09/16 09:10:48;;;;;;;7.22;1.30;;;;;;;14.40;78.12;101119.78;5075169;28;20020;-73
2022/09/16 09:13:47;;;;;;;6.07;1.75;;;;;;;14.40;74.03;101124.25;5073412;28;20060;-74
2022/09/16 09:16:52;;;;;;;5.40;1.38;;;;;;;14.39;76.97;101112.72;5061375;28;20450;-74
2022/09/16 09:19:35;;;;;;;7.60;1.15;;;;;;;14.33;76.20;101130.72;5059045;28;20120;-74
2022/09/16 09:22:31;;;;;;;4.32;1.15;;;;;;;14.53;77.65;101128.28;5065939;28;20029;-74
2022/09/16 09:25:27;;;;;;;4.80;1.30;;;;;;;14.62;75.75;101121.78;5048798;28;20056;-74
2022/09/16 09:28:04;;;;;;;12.80;1.70;;;;;;;14.46;74.47;101137.34;5074519;28;20490;-74
2022/09/16 09:30:32;;;;;;;6.20;1.10;;;;;;;14.32;74.38;101171.59;5074403;28;20043;-74
2022/09/16 09:33:29;;;;;;;10.45;1.15;;;;;;;13.98;72.20;101176.19;5069081;28;20021;-73
2022/09/16 09:36:09;;;;;;;6.50;0.85;;;;;;;13.60;72.67;101176.44;5049844;28;20579;-73
2022/09/16 09:39:04;;;;;;;4.65;0.98;;;;;;;13.30;74.50;101173.72;5059100;28;20033;-73
2022/09/16 09:41:45;;;;;;;2.42;0.60;;;;;;;13.05;75.94;101168.19;5074458;28;20024;-73
2022/09/16 09:44:29;;;;;;;1.85;0.70;;;;;;;12.85;75.29;101171.38;5058755;28;20547;-73
2022/09/16 09:46:59;;;;;;;4.75;0.70;;;;;;;12.71;78.08;101169.09;5066732;28;20103;-73
2022/09/16 09:49:30;;;;;;;2.70;0.83;;;;;;;12.65;79.02;101166.56;5060148;28;20471;-73
2022/09/16 09:52:06;;;;;;;3.13;0.93;;;;;;;12.58;78.44;101164.97;5069410;28;20032;-73
2022/09/16 09:54:37;;;;;;;3.05;0.77;;;;;;;12.52;79.79;101159.84;5060288;28;20025;-73
2022/09/16 09:57:17;;;;;;;5.93;1.67;;;;;;;12.39;80.49;101148.63;5074244;28;20028;-73
2022/09/16 09:59:49;;;;;;;3.90;1.30;;;;;;;12.34;80.99;101153.16;5060682;28;20043;-73
2022/09/16 10:02:21;;;;;;;6.80;1.25;;;;;;;12.30;81.50;101147.06;5073949;28;20090;-73
2022/09/16 10:04:48;;;;;;;7.70;1.40;;;;;;;12.24;82.00;101150.75;5073653;28;20036;-73
2022/09/16 10:07:20;;;;;;;4.47;1.05;;;;;;;12.21;82.09;101155.25;5072572;28;20027;-73
2022/09/16 10:09:54;;;;;;;4.47;1.20;;;;;;;12.18;82.06;101156.19;5067630;28;20102;-74
2022/09/16 10:12:30;;;;;;;5.32;1.33;;;;;;;12.07;84.20;101150.28;5066225;28;20036;-73
2022/09/16 10:14:56;;;;;;;4.45;1.15;;;;;;;12.00;82.96;101144.22;5074338;28;20064;-77
2022/09/16 10:17:21;;;;;;;4.60;0.85;;;;;;;11.96;83.61;101144.31;5065572;28;20447;-77
2022/09/16 10:19:55;;;;;;;6.13;1.17;;;;;;;11.91;84.32;101144.41;5055162;28;20036;-77
2022/09/16 10:22:27;;;;;;;2.85;1.00;;;;;;;11.93;84.27;101155.03;5071924;28;20527;-76
2022/09/16 10:25:08;;;;;;;6.75;1.08;;;;;;;12.11;86.99;101151.06;5073016;28;20033;-76
2022/09/16 10:27:36;;;;;;;8.75;1.75;;;;;;;12.24;84.91;101148.09;5061939;28;20056;-77
2022/09/16 10:30:16;;;;;;;5.80;1.10;;;;;;;12.32;85.22;101147.03;5058288;28;20034;-77
2022/09/16 10:33:23;;;;;;;3.80;1.08;;;;;;;12.65;84.55;101147.97;5061892;28;20040;-76
2022/09/16 10:35:56;;;;;;;5.30;1.23;;;;;;;13.01;90.40;101146.13;5010685;28;20177;-76
2022/09/16 10:38:26;;;;;;;6.82;1.33;;;;;;;13.22;82.37;101133.16;5061623;28;20479;-76
2022/09/16 10:40:59;;;;;;;4.63;0.93;;;;;;;13.39;81.44;101130.06;5034896;28;20468;-76
2022/09/16 10:43:28;;;;;;;4.38;1.05;;;;;;;13.54;83.31;101135.78;5066167;28;20124;-76
2022/09/16 10:45:59;;;;;;;6.30;1.17;;;;;;;13.72;81.74;101134.41;5066559;28;20024;-76
2022/09/16 10:48:27;;;;;;;3.88;1.10;;;;;;;13.89;80.28;101132.97;5059664;28;20422;-77
2022/09/16 10:50:59;;;;;;;4.63;1.40;;;;;;;14.04;81.19;101126.31;5071108;28;20044;-77
2022/09/16 10:53:35;;;;;;;;;;;;;;;14.24;81.14;101123.88;5062016;28;20033;-77
2022/09/16 10:56:25;;;;;;;4.38;1.10;;;;;;;14.67;80.57;101121.63;5066948;28;20331;-77
2022/09/16 10:59:09;;;;;;;4.68;1.02;;;;;;;14.84;77.58;101114.78;5050667;28;20045;-77
2022/09/16 11:01:46;;;;;;;3.30;0.85;;;;;;;14.76;76.89;101111.50;5061160;28;20433;-77
2022/09/16 11:04:36;;;;;;;6.03;1.40;;;;;;;14.54;75.92;101124.69;5063124;28;20040;-77
2022/09/16 11:07:11;;;;;;;5.55;1.55;;;;;;;14.34;77.72;101133.34;5051430;28;20033;-77
2022/09/16 11:09:58;;;;;;;5.22;1.20;;;;;;;14.19;78.35;101133.81;5070912;28;20047;-77
2022/09/16 11:12:23;;;;;;;3.70;1.17;;;;;;;14.13;81.12;101142.88;5057704;28;20087;-76
2022/09/16 11:15:05;;;;;;;8.15;1.85;;;;;;;14.19;81.93;101131.13;5066288;28;20515;-76
2022/09/16 11:18:05;;;;;;;;;;;;;;;14.41;81.33;101131.31;5072587;28;20119;-76
2022/09/16 11:20:53;;;;;;;4.53;1.10;;;;;;;14.69;79.73;101122.41;5049542;28;19924;-77
2022/09/16 11:23:43;;;;;;;6.22;1.35;;;;;;;15.08;83.06;101121.94;5053411;28;20094;-76
2022/09/16 11:26:39;;;;;;;6.03;1.40;;;;;;;15.72;86.56;101124.03;5072199;28;20028;-76
2022/09/16 11:29:20;;;;;;;8.23;1.55;;;;;;;16.17;75.25;101112.44;5072112;28;20063;-76
2022/09/16 11:32:09;;;;;;;3.33;0.80;;;;;;;16.11;67.68;101126.94;5072222;28;20040;-77
2022/09/16 11:34:58;;;;;;;3.75;1.23;;;;;;;16.21;70.18;101125.63;5061960;28;20185;-77
2022/09/16 11:37:31;;;;;;;3.58;1.10;;;;;;;15.98;67.13;101136.38;5071951;28;20071;-77
2022/09/16 11:40:14;;;;;;;6.45;1.33;;;;;;;15.92;68.93;101134.81;5071787;28;20040;-77
2022/09/16 11:43:20;;;;;;;5.18;1.40;;;;;;;15.67;65.72;101161.56;5058583;28;20435;-78
2022/09/16 11:46:02;;;;;;;3.88;0.90;;;;;;;15.11;65.63;101213.41;5071524;28;20086;-78
2022/09/16 11:48:50;;;;;;;6.65;1.17;;;;;;;14.45;69.93;101207.56;5071149;28;20036;-78
2022/09/16 11:51:44;;;;;;;8.85;1.35;;;;;;;13.93;72.76;101210.06;5072279;28;20093;-79
2022/09/16 11:54:33;;;;;;;5.18;0.93;;;;;;;13.57;74.97;101196.03;5070450;28;20101;-79